Airfield :
LOGIN :

Register | Disclaimer

   EN    FR    IT 

 










Legend :    VFR   Marginal VFR   IFR   Intensive IFR   Very Intensive IFR
Visi :
Ceiling :
>= 8 km
>= 3000ft
5 to 8 km
1000 to 3000 ft
1500m to 5 km
500 to 1000 ft
800 to 1500m
200 to 500 ft
< 800m
< 200 ft
Symbols :   Thunderstorms  Fog  Heavy snow  Heavy precipitations  Wind > 20 kt
SIGMETs :     Misc.  Thunderstorms  Icing  Turbulence  Mountain Waves  Volcanic Ashes






- Airport Elevation : 1504 ft
- IATA code : PNA


LEPP - Noain Pamplona

CURRENT METAR :
  • 221400Z 30002KT CAVOK 09/M04 Q1028

EXPIRED METARs :
  • 221330Z 33003KT CAVOK 09/M03 Q1028
  • 221300Z 31003KT CAVOK 08/M04 Q1029
  • 221230Z VRB03KT CAVOK 07/M04 Q1029
  • 221200Z 31003KT 250V010 CAVOK 07/M04 Q1029
  • 221130Z 31002KT CAVOK 06/M05 Q1030

TAF TAF LEPP
Valid from the 22 at 09:00 until the 23 at 09:00 UTC


220800Z 2209/2309 VRB04KT 9999 FEW035 TX06/2215Z TNM04/2306Z
TEMPO 2211/2221 33010KT



MET'MAP, your aeronautical weather chart ! - Copyright ORBIFLY December 2007 - Disclaimer

ORBIFLY MET'MAP TEAM :

Programming & Development : Alexandra Zaïnal
Concept & original design : Baudouin d'Aumeries
Assistance for programming : Marc-Olivier Méhu
Technical & hardware support : Manuel Goepfert

Contact : metmap@orbifly.com




SOURCES & CREDITS :

   NOAA